Time;durP1;ratioP1;P1;durP2;ratioP2;P2;SDS_P1;SDS_P2;PMS_P1;PMS_P2;Temp;Humidity;BMP_temperature;BMP_pressure;BME280_temperature;BME280_humidity;BME280_pressure;Samples;Min_cycle;Max_cycle;Signal;HPM_P1;HPM_P2
2022/03/06 00:01:13;;;;;;;15.50;7.47;;;0.00;99.90;;;;;;5091349;28;20463;-68
2022/03/06 00:03:40;;;;;;;12.90;8.40;;;0.20;99.90;;;;;;5090086;28;20521;-67
2022/03/06 00:06:07;;;;;;;12.30;8.10;;;0.40;99.90;;;;;;5090995;28;20881;-67
2022/03/06 00:08:33;;;;;;;13.43;7.10;;;0.60;99.90;;;;;;5090584;28;20488;-67
2022/03/06 00:11:02;;;;;;;14.23;9.13;;;0.50;99.90;;;;;;5090785;28;20918;-67
2022/03/06 00:13:29;;;;;;;19.27;7.53;;;0.50;99.90;;;;;;5090199;28;20887;-68
2022/03/06 00:15:55;;;;;;;12.80;7.03;;;0.50;99.90;;;;;;5090769;28;20464;-66
2022/03/06 00:18:22;;;;;;;10.90;6.73;;;0.30;99.90;;;;;;5090348;28;20440;-67
2022/03/06 00:20:49;;;;;;;11.80;7.43;;;0.20;99.90;;;;;;5090576;28;20491;-67
2022/03/06 00:23:16;;;;;;;11.80;7.53;;;-0.10;99.90;;;;;;5090683;28;20455;-67
2022/03/06 00:25:43;;;;;;;9.63;7.13;;;0.00;99.90;;;;;;5090191;28;20568;-67
2022/03/06 00:28:11;;;;;;;10.83;6.43;;;0.00;99.90;;;;;;5090812;28;20472;-67
2022/03/06 00:30:38;;;;;;;8.87;6.27;;;0.00;99.90;;;;;;5089835;28;21003;-68
2022/03/06 00:33:06;;;;;;;13.50;7.03;;;;;;;;;;5090564;28;20451;-67
2022/03/06 00:35:33;;;;;;;14.10;7.53;;;;;;;;;;5090433;28;20514;-66
2022/03/06 00:38:01;;;;;;;10.97;6.90;;;;;;;;;;5091001;28;20464;-66
2022/03/06 00:40:28;;;;;;;15.27;8.20;;;;;;;;;;5092490;28;20450;-67
2022/03/06 00:42:55;;;;;;;10.53;7.43;;;;;;;;;;5094352;28;20454;-67
2022/03/06 00:45:24;;;;;;;11.80;7.37;;;;;;;;;;5094903;28;20538;-67
2022/03/06 00:47:51;;;;;;;15.13;7.73;;;;;;;;;;5095737;28;20534;-67
2022/03/06 00:50:19;;;;;;;13.93;7.23;;;;;;;;;;5095814;28;20452;-67
2022/03/06 00:52:46;;;;;;;10.57;6.33;;;;;;;;;;5094783;28;20537;-67
2022/03/06 00:55:13;;;;;;;12.67;7.00;;;;;;;;;;5095775;28;20535;-67
2022/03/06 00:57:40;;;;;;;13.90;6.97;;;;;;;;;;5096751;28;20458;-68
2022/03/06 01:00:08;;;;;;;10.37;7.10;;;;;;;;;;5097710;28;20530;-68
2022/03/06 01:02:36;;;;;;;10.27;6.73;;;;;;;;;;5095184;28;20547;-68
2022/03/06 01:05:04;;;;;;;12.17;7.37;;;;;;;;;;5094425;28;20511;-69
2022/03/06 01:07:31;;;;;;;9.07;6.30;;;;;;;;;;5093401;28;20931;-68
2022/03/06 01:09:59;;;;;;;10.00;6.37;;;;;;;;;;5094099;28;20537;-68
2022/03/06 01:12:26;;;;;;;11.17;6.50;;;;;;;;;;5093102;28;20450;-68
2022/03/06 01:14:53;;;;;;;11.17;7.20;;;;;;;;;;5094326;28;20445;-68
2022/03/06 01:17:20;;;;;;;10.67;6.90;;;;;;;;;;5094164;28;20459;-68
2022/03/06 01:19:49;;;;;;;14.43;7.10;;;;;;;;;;5094394;28;20450;-68
2022/03/06 01:22:17;;;;;;;11.87;7.33;;;;;;;;;;5093975;28;20454;-68
2022/03/06 01:24:44;;;;;;;13.40;8.63;;;;;;;;;;5093252;28;20569;-68
2022/03/06 01:27:11;;;;;;;11.70;6.77;;;;;;;;;;5093791;28;20455;-67
2022/03/06 01:29:38;;;;;;;13.37;7.27;;;;;;;;;;5079875;28;20449;-67
2022/03/06 01:32:06;;;;;;;12.07;7.43;;;;;;;;;;5094150;28;20452;-68
2022/03/06 01:34:33;;;;;;;11.43;6.67;;;;;;;;;;5092608;28;20483;-68
2022/03/06 01:37:01;;;;;;;10.87;6.70;;;;;;;;;;5093268;28;20530;-68
2022/03/06 01:39:28;;;;;;;10.90;6.83;;;;;;;;;;5092721;28;20448;-67
2022/03/06 01:41:56;;;;;;;14.43;7.70;;;;;;;;;;5093528;28;20847;-67
2022/03/06 01:44:23;;;;;;;10.50;7.30;;;;;;;;;;5092542;28;20945;-70
2022/03/06 01:46:50;;;;;;;13.27;7.70;;;;;;;;;;5093196;28;21149;-68
2022/03/06 01:49:18;;;;;;;11.60;6.93;;;;;;;;;;5093442;28;20563;-68
2022/03/06 01:51:46;;;;;;;15.70;7.90;;;;;;;;;;5091549;28;20447;-68
2022/03/06 01:54:14;;;;;;;13.97;7.70;;;;;;;;;;5093030;28;20479;-67
2022/03/06 01:56:42;;;;;;;13.60;6.90;;;;;;;;;;5092794;28;20810;-68
2022/03/06 01:59:10;;;;;;;12.10;6.57;;;;;;;;;;5093658;28;20479;-67
2022/03/06 02:01:38;;;;;;;14.77;6.87;;;;;;;;;;5092644;28;20451;-67
2022/03/06 02:04:05;;;;;;;8.43;6.60;;;0.10;99.90;;;;;;5093112;28;20482;-67
2022/03/06 02:06:31;;;;;;;13.23;7.80;;;-0.60;1.00;;;;;;5092413;28;20897;-67
2022/03/06 02:08:58;;;;;;;10.90;7.67;;;-0.60;1.00;;;;;;5093032;28;20530;-67
2022/03/06 02:11:28;;;;;;;9.70;6.30;;;-0.50;1.00;;;;;;5092590;28;20469;-67
2022/03/06 02:13:56;;;;;;;15.93;7.40;;;-0.50;1.00;;;;;;5092598;28;20860;-67
2022/03/06 02:16:23;;;;;;;12.03;7.50;;;-0.60;1.00;;;;;;5092249;28;20454;-66
2022/03/06 02:18:50;;;;;;;13.23;8.03;;;-0.90;1.00;;;;;;5092814;28;20449;-67
2022/03/06 02:21:18;;;;;;;14.10;6.70;;;-0.70;1.00;;;;;;5092795;28;20863;-67
2022/03/06 02:23:47;;;;;;;11.90;7.20;;;-0.90;1.00;;;;;;5091870;28;20441;-67
2022/03/06 02:26:14;;;;;;;12.23;7.40;;;-1.10;1.00;;;;;;5092549;28;20481;-67
2022/03/06 02:28:42;;;;;;;12.70;6.80;;;-1.10;1.00;;;;;;5092150;28;20448;-67
2022/03/06 02:31:11;;;;;;;13.60;7.97;;;-1.20;1.00;;;;;;5092324;28;20957;-67
2022/03/06 02:33:38;;;;;;;15.70;8.30;;;-1.10;1.00;;;;;;5090983;28;20448;-67
2022/03/06 02:36:07;;;;;;;13.40;7.80;;;-0.90;1.00;;;;;;5092046;28;20448;-67
2022/03/06 02:38:35;;;;;;;12.80;8.07;;;-0.70;1.00;;;;;;5091383;28;20441;-67
2022/03/06 02:41:02;;;;;;;17.63;8.50;;;-0.90;1.00;;;;;;5092509;28;20460;-67
2022/03/06 02:43:29;;;;;;;17.17;7.20;;;-0.90;1.00;;;;;;5091851;28;20450;-67
2022/03/06 02:45:56;;;;;;;12.90;7.93;;;-1.00;1.00;;;;;;5092621;28;20913;-68
2022/03/06 02:48:24;;;;;;;12.10;7.27;;;-1.30;20.20;;;;;;5092017;28;20535;-67
2022/03/06 02:50:53;;;;;;;13.40;8.47;;;-1.30;99.90;;;;;;5092790;28;20464;-67
2022/03/06 02:53:20;;;;;;;11.60;7.50;;;-1.30;99.90;;;;;;5091608;28;21046;-67
2022/03/06 02:55:49;;;;;;;17.03;8.67;;;-0.80;43.30;;;;;;5092372;28;20449;-67
2022/03/06 02:58:15;;;;;;;12.67;7.53;;;-0.70;1.00;;;;;;5092154;28;20535;-67
2022/03/06 03:00:42;;;;;;;14.00;7.57;;;-1.00;1.00;;;;;;5091426;28;20780;-67
2022/03/06 03:03:09;;;;;;;14.07;7.17;;;-0.80;1.00;;;;;;5090482;28;20506;-67
2022/03/06 03:05:36;;;;;;;15.43;7.20;;;-0.60;1.00;;;;;;5091299;28;20478;-67
2022/03/06 03:08:03;;;;;;;13.63;7.93;;;-0.70;1.00;;;;;;5091397;28;20458;-67
2022/03/06 03:10:30;;;;;;;12.40;6.90;;;-1.00;1.00;;;;;;5091526;28;20535;-67
2022/03/06 03:12:58;;;;;;;16.33;8.93;;;-1.10;3.80;;;;;;5091675;28;20449;-67
2022/03/06 03:15:25;;;;;;;13.57;7.20;;;-1.10;1.00;;;;;;5091288;28;20444;-67
2022/03/06 03:17:53;;;;;;;14.07;6.77;;;-1.20;10.90;;;;;;5091931;28;20448;-67
2022/03/06 03:20:20;;;;;;;16.93;6.83;;;-1.50;99.90;;;;;;5091763;28;20460;-67
2022/03/06 03:22:47;;;;;;;13.87;8.17;;;-1.50;1.00;;;;;;5091543;28;20444;-67
2022/03/06 03:25:14;;;;;;;15.93;8.63;;;-1.40;99.90;;;;;;5091562;28;20477;-67
2022/03/06 03:27:41;;;;;;;13.77;6.40;;;-1.40;99.90;;;;;;5091531;28;20478;-67
2022/03/06 03:30:11;;;;;;;12.70;6.93;;;-1.40;99.90;;;;;;5091782;28;20468;-67
2022/03/06 03:32:39;;;;;;;16.10;7.17;;;-1.10;99.90;;;;;;5091000;28;20532;-67
2022/03/06 03:35:07;;;;;;;14.10;7.37;;;-1.10;99.90;;;;;;5091889;28;20447;-67
2022/03/06 03:37:34;;;;;;;12.87;7.30;;;-1.30;99.90;;;;;;5090208;28;20941;-66
2022/03/06 03:40:01;;;;;;;11.47;6.47;;;-1.30;99.90;;;;;;5091534;28;20523;-67
2022/03/06 03:42:27;;;;;;;14.50;7.27;;;-1.10;99.90;;;;;;5089953;28;20486;-67
2022/03/06 03:44:54;;;;;;;10.77;7.43;;;-1.10;99.90;;;;;;5091597;28;20796;-68
2022/03/06 03:47:23;;;;;;;11.33;7.43;;;-1.20;99.90;;;;;;5091171;28;20544;-67
2022/03/06 03:49:50;;;;;;;15.20;7.23;;;-1.40;99.90;;;;;;5091195;28;20446;-67
2022/03/06 03:52:17;;;;;;;17.60;8.27;;;-1.60;1.00;;;;;;5077735;28;20452;-68
2022/03/06 03:54:44;;;;;;;15.73;7.60;;;-1.30;1.00;;;;;;5090357;28;20472;-68
2022/03/06 03:57:13;;;;;;;14.60;7.53;;;-1.20;99.90;;;;;;5077393;28;20451;-68
2022/03/06 03:59:40;;;;;;;15.03;9.47;;;-1.40;99.90;;;;;;5090353;28;20487;-68
2022/03/06 04:02:07;;;;;;;10.97;7.07;;;-1.30;1.00;;;;;;5090738;28;20456;-68
2022/03/06 04:04:35;;;;;;;15.57;8.87;;;-1.40;1.00;;;;;;5090857;28;20535;-68
2022/03/06 04:07:02;;;;;;;16.57;8.17;;;-1.70;1.00;;;;;;5090986;28;20529;-68
2022/03/06 04:09:29;;;;;;;13.10;7.03;;;-1.40;1.00;;;;;;5091101;28;20449;-68
2022/03/06 04:11:56;;;;;;;15.93;8.30;;;-1.10;99.90;;;;;;5090741;28;20448;-68
2022/03/06 04:14:23;;;;;;;16.23;7.90;;;-1.30;99.90;;;;;;5093169;28;20448;-68
2022/03/06 04:16:50;;;;;;;12.67;7.90;;;-1.30;99.90;;;;;;5095627;28;20487;-68
2022/03/06 04:19:17;;;;;;;13.63;9.07;;;-1.70;99.90;;;;;;5095006;28;20457;-68
2022/03/06 04:21:45;;;;;;;17.33;8.93;;;-1.50;1.00;;;;;;5094254;28;20460;-68
2022/03/06 04:24:12;;;;;;;12.97;7.53;;;-1.50;1.00;;;;;;5094885;28;20498;-68
2022/03/06 04:26:39;;;;;;;18.13;8.47;;;-1.60;1.00;;;;;;5094363;28;20824;-68
2022/03/06 04:29:06;;;;;;;12.37;7.23;;;-1.40;1.00;;;;;;5095050;28;20448;-68
2022/03/06 04:31:33;;;;;;;14.23;8.67;;;-1.40;99.90;;;;;;5094458;28;20497;-68
2022/03/06 04:34:00;;;;;;;20.63;8.60;;;-1.40;1.00;;;;;;5094172;28;20486;-68
2022/03/06 04:36:28;;;;;;;16.10;6.43;;;-1.50;1.00;;;;;;5094061;28;20451;-68
2022/03/06 04:38:56;;;;;;;16.43;8.13;;;-1.50;1.00;;;;;;5094663;28;20551;-68
2022/03/06 04:41:24;;;;;;;13.13;6.70;;;-1.80;1.00;;;;;;5094651;28;20444;-67
2022/03/06 04:43:52;;;;;;;13.43;8.50;;;-1.60;99.90;;;;;;5094111;28;20444;-68
2022/03/06 04:46:19;;;;;;;15.53;8.10;;;-1.60;1.00;;;;;;5095109;28;20559;-67
2022/03/06 04:48:46;;;;;;;16.20;8.73;;;-1.50;99.90;;;;;;5094891;28;20470;-67
2022/03/06 04:51:13;;;;;;;16.53;7.40;;;-1.50;1.00;;;;;;5094927;28;20952;-67
2022/03/06 04:53:40;;;;;;;14.83;7.73;;;-1.50;1.00;;;;;;5094974;28;20473;-67
2022/03/06 04:56:08;;;;;;;11.23;6.97;;;-1.80;88.00;;;;;;5099609;28;20451;-67
2022/03/06 04:58:36;;;;;;;14.07;7.33;;;-1.70;99.90;;;;;;5100083;28;20769;-67
2022/03/06 05:01:04;;;;;;;11.03;6.93;;;-1.60;89.70;;;;;;5095446;28;20487;-68
2022/03/06 05:03:31;;;;;;;12.13;6.10;;;-1.40;1.00;;;;;;5093585;28;20444;-68
2022/03/06 05:05:57;;;;;;;11.40;6.50;;;-1.50;1.00;;;;;;5094160;28;20494;-68
2022/03/06 05:08:26;;;;;;;12.67;7.13;;;-1.90;89.30;;;;;;5093636;28;20444;-68
2022/03/06 05:10:53;;;;;;;12.03;7.67;;;-2.00;99.90;;;;;;5094391;28;20441;-68
2022/03/06 05:13:22;;;;;;;14.20;7.70;;;-2.00;1.00;;;;;;5094086;28;20478;-68
2022/03/06 05:15:49;;;;;;;12.07;7.30;;;-1.90;1.00;;;;;;5094345;28;20474;-68
2022/03/06 05:18:16;;;;;;;13.37;7.70;;;-1.60;1.00;;;;;;5094318;28;20490;-68
2022/03/06 05:20:44;;;;;;;17.10;8.43;;;-1.70;99.90;;;;;;5093127;28;20543;-69
2022/03/06 05:23:11;;;;;;;10.57;7.20;;;-1.90;99.90;;;;;;5093553;28;20853;-68
2022/03/06 05:25:37;;;;;;;10.70;5.70;;;-2.10;1.00;;;;;;5092142;28;20484;-68
2022/03/06 05:28:05;;;;;;;13.23;8.13;;;-2.20;24.80;;;;;;5094123;28;20444;-67
2022/03/06 05:30:33;;;;;;;13.87;8.33;;;-2.40;1.00;;;;;;5093283;28;20452;-66
2022/03/06 05:33:00;;;;;;;12.87;7.90;;;-2.50;99.90;;;;;;5093316;28;20970;-67
2022/03/06 05:35:27;;;;;;;13.80;8.43;;;-2.20;1.00;;;;;;5093367;28;20805;-68
2022/03/06 05:37:55;;;;;;;15.20;8.30;;;-2.20;1.00;;;;;;5093707;28;20448;-67
2022/03/06 05:40:22;;;;;;;13.40;8.40;;;-2.20;73.60;;;;;;5093647;28;20955;-67
2022/03/06 05:42:49;;;;;;;19.83;8.47;;;-2.20;99.90;;;;;;5093131;28;20801;-67
2022/03/06 05:45:16;;;;;;;14.10;8.10;;;-1.90;99.90;;;;;;5092109;28;20889;-68
2022/03/06 05:47:44;;;;;;;16.07;7.80;;;-1.90;99.90;;;;;;5092551;28;20559;-67
2022/03/06 05:50:12;;;;;;;16.10;9.47;;;-1.70;99.90;;;;;;5093145;28;20449;-67
2022/03/06 05:52:39;;;;;;;10.43;7.43;;;-1.50;99.90;;;;;;5092293;28;20453;-67
2022/03/06 05:55:07;;;;;;;14.57;7.33;;;-1.40;99.90;;;;;;5093215;28;20529;-67
2022/03/06 05:57:34;;;;;;;13.80;6.80;;;-1.70;99.90;;;;;;5092524;28;20453;-67
2022/03/06 06:00:01;;;;;;;11.87;7.57;;;-1.70;1.00;;;;;;5092718;28;20881;-68
2022/03/06 06:02:28;;;;;;;13.80;7.30;;;-1.50;1.00;;;;;;5091820;28;20502;-67
2022/03/06 06:04:56;;;;;;;14.43;8.57;;;-1.30;74.10;;;;;;5092472;28;20443;-68
2022/03/06 06:07:25;;;;;;;16.87;9.90;;;-1.30;1.00;;;;;;5092575;28;20858;-67
2022/03/06 06:09:52;;;;;;;13.27;8.03;;;-1.50;99.90;;;;;;5092600;28;20803;-67
2022/03/06 06:12:19;;;;;;;12.50;7.90;;;-1.30;99.90;;;;;;5092436;28;20487;-68
2022/03/06 06:14:45;;;;;;;14.87;7.20;;;-1.40;1.00;;;;;;5091670;28;20528;-68
2022/03/06 06:17:12;;;;;;;14.63;7.23;;;-1.60;99.90;;;;;;5093457;28;20809;-68
2022/03/06 06:19:39;;;;;;;14.03;8.30;;;-1.70;1.00;;;;;;5091938;28;20463;-67
2022/03/06 06:22:08;;;;;;;12.97;7.23;;;-1.70;99.90;;;;;;5092296;28;20506;-68
2022/03/06 06:24:35;;;;;;;12.60;7.33;;;-1.50;1.00;;;;;;5087622;28;21028;-67
2022/03/06 06:27:01;;;;;;;13.80;8.00;;;-1.30;99.90;;;;;;5082867;28;20555;-68
2022/03/06 06:29:28;;;;;;;9.70;7.03;;;-1.60;99.90;;;;;;5090823;28;20461;-67
2022/03/06 06:31:55;;;;;;;12.30;7.00;;;-1.50;1.00;;;;;;5091844;28;20554;-67
2022/03/06 06:34:22;;;;;;;14.27;8.93;;;-1.70;1.00;;;;;;5091754;28;20464;-67
2022/03/06 06:36:50;;;;;;;15.77;7.70;;;-1.40;99.90;;;;;;5092643;28;20501;-67
2022/03/06 06:39:18;;;;;;;18.00;8.00;;;-1.40;1.00;;;;;;5092080;28;20987;-68
2022/03/06 06:41:45;;;;;;;9.70;7.20;;;-1.30;99.90;;;;;;5091041;28;20537;-67
2022/03/06 06:44:12;;;;;;;14.70;8.63;;;-1.10;99.90;;;;;;5078866;28;20515;-67
2022/03/06 06:46:39;;;;;;;14.90;7.40;;;-1.10;1.00;;;;;;5091193;28;20530;-67
2022/03/06 06:49:06;;;;;;;13.40;7.93;;;-1.20;99.90;;;;;;5091520;28;20491;-67
2022/03/06 06:51:34;;;;;;;16.17;7.77;;;-1.20;1.00;;;;;;5091223;28;20498;-67
2022/03/06 06:54:01;;;;;;;16.60;8.30;;;-1.20;99.90;;;;;;5091250;28;20476;-67
2022/03/06 06:56:29;;;;;;;13.33;8.00;;;-1.00;31.00;;;;;;5091712;28;20483;-67
2022/03/06 06:58:56;;;;;;;15.20;8.23;;;-1.00;99.90;;;;;;5092343;28;20445;-67
2022/03/06 07:01:23;;;;;;;17.30;9.90;;;-1.10;1.00;;;;;;5091066;28;20502;-69
2022/03/06 07:03:50;;;;;;;14.37;9.20;;;-0.90;59.70;;;;;;5092083;28;20540;-67
2022/03/06 07:06:17;;;;;;;14.13;9.23;;;-0.70;1.00;;;;;;5091239;28;21065;-68
2022/03/06 07:08:44;;;;;;;15.80;8.10;;;-0.60;1.00;;;;;;5091015;28;21006;-68
2022/03/06 07:11:11;;;;;;;13.60;9.43;;;-0.50;99.90;;;;;;5080639;28;20521;-68
2022/03/06 07:13:39;;;;;;;14.83;8.23;;;-0.40;99.90;;;;;;5090524;28;20477;-67
2022/03/06 07:16:06;;;;;;;17.47;9.57;;;-0.40;1.00;;;;;;5091546;28;20925;-67
2022/03/06 07:18:33;;;;;;;12.83;8.50;;;-0.10;99.90;;;;;;5090564;28;20451;-67
2022/03/06 07:21:02;;;;;;;15.77;9.13;;;0.10;99.90;;;;;;5091324;28;20465;-67
2022/03/06 07:23:29;;;;;;;15.97;10.23;;;0.10;99.90;;;;;;5090142;28;20828;-67
2022/03/06 07:25:56;;;;;;;14.17;8.90;;;0.20;99.90;;;;;;5091562;28;20834;-67
2022/03/06 07:28:24;;;;;;;16.93;9.33;;;0.30;69.40;;;;;;5091035;28;20536;-66
2022/03/06 07:30:52;;;;;;;15.83;9.13;;;0.40;3.40;;;;;;5091746;28;20449;-67
2022/03/06 07:33:19;;;;;;;15.80;9.60;;;0.50;1.00;;;;;;5091017;28;20480;-67
2022/03/06 07:35:46;;;;;;;16.40;9.90;;;0.50;1.00;;;;;;5090691;28;20467;-67
2022/03/06 07:38:13;;;;;;;16.70;8.77;;;0.60;1.00;;;;;;5090566;28;20521;-67
2022/03/06 07:40:40;;;;;;;15.40;9.37;;;0.70;1.00;;;;;;5089981;28;20447;-67
2022/03/06 07:43:07;;;;;;;12.27;8.60;;;0.90;1.00;;;;;;5090656;28;21001;-68
2022/03/06 07:45:34;;;;;;;17.80;11.00;;;1.00;1.00;;;;;;5090075;28;20450;-67
2022/03/06 07:48:03;;;;;;;18.40;9.63;;;1.00;1.00;;;;;;5090126;28;20563;-68
2022/03/06 07:50:31;;;;;;;14.90;9.20;;;1.20;1.00;;;;;;5090913;28;20452;-68
2022/03/06 07:52:58;;;;;;;19.30;9.93;;;1.30;1.00;;;;;;5090484;28;20956;-67
2022/03/06 07:55:25;;;;;;;20.63;9.57;;;1.40;1.00;;;;;;5090099;28;20436;-68
2022/03/06 07:57:52;;;;;;;17.57;9.33;;;1.50;1.00;;;;;;5090953;28;20447;-68
2022/03/06 08:00:19;;;;;;;20.00;11.47;;;1.60;1.00;;;;;;5091396;28;20452;-68
2022/03/06 08:02:46;;;;;;;18.40;9.30;;;1.70;1.00;;;;;;5089752;28;20456;-68
2022/03/06 08:05:14;;;;;;;16.00;9.00;;;1.80;1.00;;;;;;5090988;28;20450;-67
2022/03/06 08:07:41;;;;;;;14.93;10.00;;;1.90;1.00;;;;;;5089611;28;20482;-67
2022/03/06 08:10:09;;;;;;;14.87;8.77;;;2.00;1.00;;;;;;5077737;28;20451;-68
2022/03/06 08:12:36;;;;;;;24.57;11.27;;;2.30;1.00;;;;;;5089271;28;20456;-68
2022/03/06 08:15:03;;;;;;;18.63;10.60;;;2.40;99.90;;;;;;5091129;28;20443;-68
2022/03/06 08:17:30;;;;;;;16.63;10.20;;;2.70;99.90;;;;;;5090048;28;20459;-68
2022/03/06 08:19:57;;;;;;;15.53;9.87;;;2.60;1.00;;;;;;5090560;28;20448;-68
2022/03/06 08:22:25;;;;;;;19.40;11.23;;;2.50;1.00;;;;;;5089933;28;20440;-68
2022/03/06 08:24:54;;;;;;;14.33;9.33;;;2.60;99.90;;;;;;5090962;28;20820;-68
2022/03/06 08:27:22;;;;;;;15.60;9.20;;;2.70;1.00;;;;;;5090761;28;20479;-68
2022/03/06 08:29:49;;;;;;;16.67;10.37;;;2.70;99.90;;;;;;5090739;28;20485;-68
2022/03/06 08:32:16;;;;;;;18.90;10.73;;;2.70;99.90;;;;;;5089533;28;20448;-68
2022/03/06 08:34:43;;;;;;;15.53;10.23;;;2.60;99.90;;;;;;5090092;28;20535;-68
2022/03/06 08:37:10;;;;;;;15.90;9.30;;;2.90;99.90;;;;;;5090124;28;20459;-68
2022/03/06 08:39:38;;;;;;;15.93;10.73;;;3.10;99.90;;;;;;5090128;28;20467;-68
2022/03/06 08:42:06;;;;;;;15.80;10.50;;;3.20;99.90;;;;;;5090250;28;20527;-68
2022/03/06 08:44:32;;;;;;;14.33;9.77;;;3.10;99.90;;;;;;5090336;28;20507;-68
2022/03/06 08:46:59;;;;;;;17.27;10.20;;;3.10;99.90;;;;;;5076565;28;20480;-68
2022/03/06 08:49:26;;;;;;;13.67;7.60;;;3.10;99.90;;;;;;5089994;28;20477;-68
2022/03/06 08:51:53;;;;;;;16.77;10.47;;;3.20;99.90;;;;;;5089930;28;20531;-68
2022/03/06 08:54:21;;;;;;;20.47;11.47;;;3.40;99.90;;;;;;5089717;28;20559;-68
2022/03/06 08:56:49;;;;;;;13.10;10.10;;;3.40;99.90;;;;;;5090924;28;20476;-68
2022/03/06 08:59:16;;;;;;;15.73;10.30;;;3.40;99.90;;;;;;5093479;28;20451;-69
2022/03/06 09:01:43;;;;;;;13.70;9.70;;;3.40;99.90;;;;;;5094661;28;21036;-68
2022/03/06 09:04:10;;;;;;;15.10;9.57;;;3.50;99.90;;;;;;5094380;28;20527;-68
2022/03/06 09:06:38;;;;;;;15.27;10.50;;;3.70;99.90;;;;;;5093608;28;20528;-69
2022/03/06 09:09:05;;;;;;;16.57;10.67;;;3.70;99.90;;;;;;5093797;28;20452;-69
2022/03/06 09:11:32;;;;;;;14.57;9.57;;;3.70;99.90;;;;;;5093098;28;20448;-69
2022/03/06 09:14:00;;;;;;;16.50;9.73;;;3.80;99.90;;;;;;5094168;28;20436;-69
2022/03/06 09:16:27;;;;;;;17.03;9.07;;;3.90;99.90;;;;;;5093365;28;20532;-69
2022/03/06 09:18:54;;;;;;;13.70;9.00;;;4.10;99.90;;;;;;5093780;28;20484;-69
2022/03/06 09:21:21;;;;;;;17.13;10.30;;;4.10;99.90;;;;;;5093933;28;20536;-69
2022/03/06 09:23:48;;;;;;;12.70;8.53;;;4.00;99.90;;;;;;5094093;28;20924;-69
2022/03/06 09:26:15;;;;;;;14.93;9.07;;;4.20;99.90;;;;;;5091525;28;20498;-69
2022/03/06 09:28:42;;;;;;;13.50;7.70;;;4.30;99.90;;;;;;5092974;28;20986;-68
2022/03/06 09:31:10;;;;;;;12.37;9.40;;;4.30;99.90;;;;;;5093690;28;20510;-68
2022/03/06 09:33:37;;;;;;;15.60;9.30;;;4.30;99.90;;;;;;5092450;28;20558;-68
2022/03/06 09:36:05;;;;;;;15.33;9.17;;;4.30;99.90;;;;;;5093122;28;20441;-69
2022/03/06 09:38:32;;;;;;;14.27;8.73;;;4.40;99.90;;;;;;5092485;28;20469;-69
2022/03/06 09:41:03;;;;;;;13.50;9.20;;;4.50;99.90;;;;;;5093611;28;20894;-69
2022/03/06 09:43:30;;;;;;;13.10;8.10;;;4.60;99.90;;;;;;5092442;28;20438;-69
2022/03/06 09:46:04;;;;;;;13.87;9.00;;;4.60;99.90;;;;;;5093386;28;20455;-68
2022/03/06 09:48:32;;;;;;;13.67;8.97;;;4.70;99.90;;;;;;5092813;28;20499;-67
2022/03/06 09:51:01;;;;;;;12.33;8.47;;;4.70;99.90;;;;;;5093509;28;20543;-69
2022/03/06 09:53:28;;;;;;;16.07;9.37;;;4.70;99.90;;;;;;5091759;28;20474;-69
2022/03/06 09:55:55;;;;;;;17.50;9.80;;;4.70;99.90;;;;;;5093194;28;20475;-69
2022/03/06 09:58:22;;;;;;;14.63;9.40;;;4.60;99.90;;;;;;5093261;28;20503;-69
2022/03/06 10:00:49;;;;;;;13.63;8.93;;;4.60;99.90;;;;;;5093162;28;20919;-69
2022/03/06 10:03:22;;;;;;;15.03;9.57;;;4.80;99.90;;;;;;5092568;28;20448;-69
2022/03/06 10:05:51;;;;;;;16.03;9.20;;;4.80;99.90;;;;;;5092738;28;20464;-68
2022/03/06 10:08:25;;;;;;;11.77;8.73;;;4.90;99.90;;;;;;5092498;28;20469;-68
2022/03/06 10:10:54;;;;;;;13.63;9.27;;;;;;;;;;5092962;28;20474;-68
2022/03/06 10:13:22;;;;;;;15.60;10.27;;;;;;;;;;5091755;28;20952;-68
2022/03/06 10:16:13;;;;;;;13.30;9.40;;;;;;;;;;5092374;28;20814;-68
2022/03/06 10:18:42;;;;;;;16.13;8.90;;;;;;;;;;5072050;28;20539;-68
2022/03/06 10:21:19;;;;;;;13.03;9.43;;;;;;;;;;5092903;28;20526;-68
2022/03/06 10:23:47;;;;;;;12.90;8.97;;;;;;;;;;5091907;28;20513;-68
2022/03/06 10:26:15;;;;;;;12.40;9.00;;;;;;;;;;5092512;28;20471;-67
2022/03/06 10:28:53;;;;;;;15.80;8.27;;;;;;;;;;5089389;28;20704;-68
2022/03/06 10:31:20;;;;;;;13.13;9.40;;;;;;;;;;5080600;28;20991;-68
2022/03/06 10:33:58;;;;;;;11.90;8.80;;;;;;;;;;5092779;28;20497;-68
2022/03/06 10:36:34;;;;;;;13.60;9.67;;;;;;;;;;5091503;28;20529;-68
2022/03/06 10:39:01;;;;;;;14.30;8.40;;;;;;;;;;5091079;28;20466;-68
2022/03/06 10:41:35;;;;;;;11.87;8.60;;;;;;;;;;5091044;28;20627;-68
2022/03/06 10:44:02;;;;;;;14.60;8.67;;;;;;;;;;5092575;28;20466;-68
2022/03/06 10:46:33;;;;;;;14.20;7.83;;;;;;;;;;5091548;28;20529;-68
2022/03/06 10:49:01;;;;;;;13.70;9.40;;;;;;;;;;5079004;28;20473;-68
2022/03/06 10:51:29;;;;;;;12.80;8.90;;;;;;;;;;5090393;28;20482;-68
2022/03/06 10:53:59;;;;;;;14.07;8.17;;;;;;;;;;5092135;28;20523;-68
2022/03/06 10:56:26;;;;;;;14.97;7.93;;;;;;;;;;5091418;28;20841;-68
2022/03/06 10:58:54;;;;;;;14.10;7.60;;;;;;;;;;5091717;28;20530;-68
2022/03/06 11:01:22;;;;;;;12.60;7.70;;;;;;;;;;5090878;28;20460;-68
2022/03/06 11:03:51;;;;;;;11.90;8.70;;;;;;;;;;5091716;28;20540;-69
2022/03/06 11:06:20;;;;;;;14.90;8.43;;;;;;;;;;5091673;28;20545;-67
2022/03/06 11:08:48;;;;;;;12.30;8.87;;;;;;;;;;5091992;28;20538;-68
2022/03/06 11:11:16;;;;;;;14.30;8.53;;;;;;;;;;5091341;28;20517;-67
2022/03/06 11:13:43;;;;;;;13.47;8.80;;;;;;;;;;5091372;28;20453;-68
2022/03/06 11:16:11;;;;;;;13.40;9.20;;;;;;;;;;5092030;28;20676;-68
2022/03/06 11:18:39;;;;;;;13.50;8.50;;;;;;;;;;5091106;28;20455;-67
2022/03/06 11:21:07;;;;;;;13.90;7.97;;;;;;;;;;5090860;28;20453;-68
2022/03/06 11:23:36;;;;;;;14.20;8.57;;;;;;;;;;5089671;28;20455;-68
2022/03/06 11:26:08;;;;;;;11.50;7.40;;;;;;;;;;5090477;28;20936;-68
2022/03/06 11:28:40;;;;;;;12.40;9.30;;;;;;;;;;5090970;28;20517;-67
2022/03/06 11:31:08;;;;;;;12.93;8.53;;;;;;;;;;5091844;28;20441;-68
2022/03/06 11:33:35;;;;;;;9.13;6.90;;;;;;;;;;5090950;28;20505;-68
2022/03/06 11:36:18;;;;;;;14.40;8.47;;;;;;;;;;5091124;28;20539;-68
2022/03/06 11:38:48;;;;;;;10.73;7.83;;;;;;;;;;5090606;28;20548;-68
2022/03/06 11:41:15;;;;;;;13.43;7.50;;;;;;;;;;5090814;28;21016;-68
2022/03/06 11:43:46;;;;;;;11.77;8.47;;;;;;;;;;5090142;28;20512;-69
2022/03/06 11:46:18;;;;;;;14.43;9.20;;;;;;;;;;5091381;28;20491;-68
2022/03/06 11:49:12;;;;;;;12.83;8.23;;;;;;;;;;5090788;28;20468;-68
2022/03/06 11:51:46;;;;;;;21.10;9.83;;;;;;;;;;5090283;28;20486;-68
2022/03/06 11:54:17;;;;;;;11.30;8.30;;;;;;;;;;5090190;28;20486;-68
2022/03/06 11:56:53;;;;;;;12.80;7.47;;;;;;;;;;5090369;28;20441;-68
2022/03/06 11:59:38;;;;;;;11.53;8.23;;;;;;;;;;5079910;28;20991;-68
2022/03/06 12:02:11;;;;;;;11.83;8.17;;;;;;;;;;5088010;28;20437;-68
2022/03/06 12:04:44;;;;;;;10.57;8.20;;;;;;;;;;5084364;28;20934;-68
2022/03/06 12:07:12;;;;;;;14.50;8.90;;;;;;;;;;5100928;28;20452;-67
2022/03/06 12:09:40;;;;;;;10.60;8.10;;;;;;;;;;5090549;28;20575;-68
2022/03/06 12:12:08;;;;;;;10.27;7.20;;;;;;;;;;5088926;28;20467;-68
2022/03/06 12:14:37;;;;;;;10.57;7.80;;;;;;;;;;5089674;28;20486;-69
2022/03/06 12:17:22;;;;;;;10.27;7.53;;;;;;;;;;5087487;28;20449;-68
2022/03/06 12:20:07;;;;;;;16.73;7.23;;;;;;;;;;5089546;28;20502;-67
2022/03/06 12:22:36;;;;;;;12.87;7.87;;;;;;;;;;5089380;28;20447;-67
2022/03/06 12:25:18;;;;;;;8.77;7.50;;;;;;;;;;5090565;28;20540;-69
2022/03/06 12:28:05;;;;;;;9.83;7.00;;;;;;;;;;5087909;28;20448;-68
2022/03/06 12:30:35;;;;;;;10.30;7.67;;;;;;;;;;5089460;28;20448;-67
2022/03/06 12:33:17;;;;;;;11.37;7.60;;;;;;;;;;5087542;28;20544;-68
2022/03/06 12:35:44;;;;;;;7.70;6.80;;;;;;;;;;5090411;28;20528;-67
2022/03/06 12:38:11;;;;;;;9.20;7.07;;;;;;;;;;5092950;28;20453;-70
2022/03/06 12:40:39;;;;;;;13.57;9.10;;;;;;;;;;5093199;28;20448;-68
2022/03/06 12:43:07;;;;;;;12.33;7.73;;;;;;;;;;5094351;28;20948;-68
2022/03/06 12:45:38;;;;;;;11.30;6.90;;;;;;;;;;5093442;28;20448;-67
2022/03/06 12:48:05;;;;;;;10.80;7.60;;;;;;;;;;5083774;28;20497;-68
2022/03/06 12:50:33;;;;;;;8.30;6.77;;;;;;;;;;5092341;28;20487;-68
2022/03/06 12:53:00;;;;;;;9.90;7.17;;;;;;;;;;5093099;28;20499;-67
2022/03/06 12:55:27;;;;;;;10.50;6.80;;;;;;;;;;5091128;28;20453;-68
2022/03/06 12:57:56;;;;;;;9.30;7.40;;;;;;;;;;5089827;28;20456;-68
2022/03/06 13:00:24;;;;;;;9.43;7.20;;;;;;;;;;5091659;28;20445;-68
2022/03/06 13:02:53;;;;;;;9.80;7.43;;;;;;;;;;5081761;28;20671;-67
2022/03/06 13:05:22;;;;;;;11.47;7.60;;;;;;;;;;5092605;28;20559;-67
2022/03/06 13:07:52;;;;;;;12.63;8.70;;;;;;;;;;5089264;28;20455;-68
2022/03/06 13:10:20;;;;;;;11.70;6.83;;;;;;;;;;5091866;28;20454;-68
2022/03/06 13:12:48;;;;;;;9.40;7.47;;;;;;;;;;5090452;28;21069;-68
2022/03/06 13:15:19;;;;;;;7.77;6.50;;;;;;;;;;5091798;28;20459;-68
2022/03/06 13:17:47;;;;;;;9.73;7.87;;;;;;;;;;5090434;28;21337;-68
2022/03/06 13:20:17;;;;;;;9.10;6.97;;;;;;;;;;5090902;28;20563;-68
2022/03/06 13:22:44;;;;;;;10.53;7.57;;;;;;;;;;5089775;28;20452;-68
2022/03/06 13:25:12;;;;;;;11.63;7.80;;;;;;;;;;5091282;28;21344;-68